Time;durP1;ratioP1;P1;durP2;ratioP2;P2;SDS_P1;SDS_P2;PMS_P1;PMS_P2;Temp;Humidity;BMP_temperature;BMP_pressure;BME280_temperature;BME280_humidity;BME280_pressure;Samples;Min_cycle;Max_cycle;Signal;HPM_P1;HPM_P2
2023/01/13 00:01:38;;;;;;;3.77;3.47;;;;;;;9.62;100.00;99015.28;5034627;28;20443;-68
2023/01/13 00:04:05;;;;;;;3.43;3.13;;;;;;;9.60;100.00;99006.63;5043110;28;20967;-69
2023/01/13 00:06:31;;;;;;;4.10;3.80;;;;;;;9.57;100.00;99009.63;5043233;28;20490;-68
2023/01/13 00:08:59;;;;;;;3.47;3.17;;;;;;;9.60;100.00;99004.78;5038244;28;20726;-67
2023/01/13 00:11:26;;;;;;;3.23;2.43;;;;;;;9.65;100.00;99000.78;5023062;28;20479;-69
2023/01/13 00:13:53;;;;;;;2.53;2.33;;;;;;;9.66;100.00;98984.59;5042197;28;20488;-68
2023/01/13 00:16:20;;;;;;;2.27;2.07;;;;;;;9.70;100.00;99006.44;5032065;28;20485;-69
2023/01/13 00:18:47;;;;;;;2.43;2.20;;;;;;;9.85;100.00;98995.97;5023371;28;20452;-69
2023/01/13 00:21:16;;;;;;;1.93;1.83;;;;;;;9.77;100.00;98999.44;5022287;28;20499;-68
2023/01/13 00:23:43;;;;;;;3.23;2.30;;;;;;;9.83;100.00;99000.63;5025436;28;20756;-68
2023/01/13 00:26:13;;;;;;;3.63;3.10;;;;;;;9.82;100.00;98991.78;5036760;28;21013;-70
2023/01/13 00:28:39;;;;;;;3.80;3.50;;;;;;;9.66;100.00;98986.44;5023669;28;20458;-68
2023/01/13 00:31:07;;;;;;;3.53;3.33;;;;;;;9.65;100.00;98984.75;5035991;28;20500;-70
2023/01/13 00:33:34;;;;;;;4.77;3.30;;;;;;;9.63;100.00;98976.91;5034368;28;20467;-69
2023/01/13 00:36:02;;;;;;;3.90;3.47;;;;;;;9.69;100.00;98988.78;5026842;28;20518;-68
2023/01/13 00:38:31;;;;;;;6.10;3.30;;;;;;;9.63;100.00;98987.59;5030859;28;20486;-67
2023/01/13 00:40:58;;;;;;;2.90;2.70;;;;;;;9.68;100.00;98993.25;5041856;28;20477;-66
2023/01/13 00:43:25;;;;;;;3.00;2.80;;;;;;;9.67;100.00;98991.63;5040262;28;20450;-66
2023/01/13 00:45:53;;;;;;;2.40;2.20;;;;;;;9.60;100.00;98956.75;5021970;28;20591;-68
2023/01/13 00:48:20;;;;;;;2.37;2.17;;;;;;;9.67;100.00;98962.25;5034688;28;20445;-66
2023/01/13 00:50:47;;;;;;;2.47;1.77;;;;;;;9.68;100.00;98971.91;5040539;28;20474;-66
2023/01/13 00:53:15;;;;;;;5.47;1.50;;;;;;;9.60;100.00;98966.59;5041789;28;20450;-66
2023/01/13 00:55:41;;;;;;;1.90;1.70;;;;;;;9.63;100.00;98971.56;5040867;28;20474;-66
2023/01/13 00:58:08;;;;;;;1.43;1.13;;;;;;;9.61;100.00;98973.59;5036148;28;20458;-67
2023/01/13 01:00:36;;;;;;;1.70;1.40;;;;;;;9.57;100.00;98973.09;5023333;28;20490;-66
2023/01/13 01:03:06;;;;;;;3.77;1.40;;;;;;;9.54;100.00;98969.91;5042728;28;20430;-68
2023/01/13 01:05:33;;;;;;;1.63;1.43;;;;;;;9.59;100.00;98968.41;5040653;28;20474;-68
2023/01/13 01:08:00;;;;;;;1.30;0.93;;;;;;;9.46;100.00;98968.09;5039194;28;20450;-67
2023/01/13 01:10:28;;;;;;;1.57;1.47;;;;;;;9.49;100.00;98973.06;5021894;28;20482;-66
2023/01/13 01:12:57;;;;;;;1.70;1.30;;;;;;;9.28;100.00;98968.19;5034305;28;20490;-64
2023/01/13 01:15:23;;;;;;;2.33;1.10;;;;;;;9.32;100.00;98982.91;5034753;28;21011;-66
2023/01/13 01:17:51;;;;;;;2.97;1.10;;;;;;;9.29;100.00;98987.69;5022940;28;20435;-67
2023/01/13 01:20:18;;;;;;;1.63;1.53;;;;;;;9.17;100.00;98988.03;5021555;28;20451;-66
2023/01/13 01:22:44;;;;;;;2.13;1.30;;;;;;;9.13;100.00;98977.84;5021916;28;20455;-67
2023/01/13 01:25:11;;;;;;;1.33;1.10;;;;;;;9.10;100.00;98992.34;5021590;28;20507;-68
2023/01/13 01:27:38;;;;;;;2.90;1.40;;;;;;;9.04;100.00;98992.97;5033078;28;20470;-67
2023/01/13 01:30:05;;;;;;;1.47;0.90;;;;;;;9.02;100.00;98990.47;5034354;28;20449;-68
2023/01/13 01:32:33;;;;;;;6.73;2.43;;;;;;;8.94;100.00;99001.13;5038378;28;20498;-68
2023/01/13 01:35:01;;;;;;;5.53;1.30;;;;;;;9.04;100.00;98996.50;5033378;28;20498;-68
2023/01/13 01:37:28;;;;;;;6.17;1.40;;;;;;;9.06;100.00;99006.97;5034391;28;20474;-69
2023/01/13 01:39:54;;;;;;;5.70;1.20;;;;;;;9.01;100.00;98999.47;5039883;28;21006;-69
2023/01/13 01:45:14;;;;;;;7.70;2.77;;;;;;;8.99;100.00;99000.63;5040033;28;20528;-68
2023/01/13 01:47:41;;;;;;;4.77;1.47;;;;;;;9.00;100.00;98989.78;5041247;28;20453;-71
2023/01/13 01:50:11;;;;;;;7.13;1.47;;;;;;;8.99;100.00;98998.81;5038865;28;20502;-68
2023/01/13 01:52:39;;;;;;;7.00;1.60;;;;;;;8.92;100.00;98988.94;5041174;28;20469;-68
2023/01/13 01:55:09;;;;;;;4.80;2.90;;;;;;;8.80;100.00;98999.91;5024831;28;20454;-69
2023/01/13 01:57:39;;;;;;;5.10;1.90;;;;;;;8.80;100.00;98999.03;5036973;28;20474;-71
2023/01/13 02:00:06;;;;;;;4.57;1.83;;;;;;;8.82;100.00;98999.75;5013840;28;20504;-68
2023/01/13 02:02:33;;;;;;;6.60;2.43;;;;;;;8.80;100.00;99017.69;5035966;28;20529;-69
2023/01/13 02:05:00;;;;;;;5.37;1.87;;;;;;;8.89;100.00;99000.75;5035227;28;20455;-67
2023/01/13 02:07:31;;;;;;;5.37;1.70;;;;;;;8.92;100.00;99000.41;5029268;28;20892;-67
2023/01/13 02:09:59;;;;;;;6.93;1.87;;;;;;;8.86;100.00;99009.91;5023673;28;20811;-67
2023/01/13 02:12:29;;;;;;;6.60;1.63;;;;;;;8.87;100.00;99000.09;5024806;28;20486;-68
2023/01/13 02:14:56;;;;;;;7.57;2.20;;;;;;;8.93;100.00;98995.94;5035902;28;20489;-68
2023/01/13 02:17:34;;;;;;;8.90;1.67;;;;;;;9.01;100.00;98999.47;5033200;28;20545;-68
2023/01/13 02:20:51;;;;;;;5.40;1.57;;;;;;;8.89;100.00;99000.75;5040108;28;20454;-69
2023/01/13 02:26:43;;;;;;;4.30;1.53;;;;;;;8.81;100.00;99012.22;5015474;28;20478;-67
2023/01/13 02:32:11;;;;;;;8.13;2.10;;;;;;;8.67;100.00;99010.16;5020968;28;20549;-67
2023/01/13 02:34:40;;;;;;;4.73;1.83;;;;;;;8.70;100.00;99008.97;5021400;28;20430;-68
2023/01/13 02:37:09;;;;;;;5.27;1.80;;;;;;;8.66;100.00;99030.63;5031543;28;20486;-69
2023/01/13 02:39:39;;;;;;;4.53;2.00;;;;;;;8.82;100.00;99018.41;5023673;28;20465;-69
2023/01/13 02:44:53;;;;;;;3.83;1.37;;;;;;;8.78;100.00;99001.03;5040466;28;20482;-69
2023/01/13 02:47:23;;;;;;;5.00;2.03;;;;;;;8.96;100.00;99015.13;5027401;28;20527;-69
2023/01/13 02:49:51;;;;;;;5.03;2.30;;;;;;;8.88;100.00;99017.75;5028384;28;20808;-69
2023/01/13 02:52:22;;;;;;;5.20;2.13;;;;;;;8.73;100.00;99016.66;5039327;28;20466;-69
2023/01/13 02:54:54;;;;;;;6.63;2.10;;;;;;;8.67;100.00;99007.50;5041250;28;20446;-69
2023/01/13 02:57:22;;;;;;;4.63;1.87;;;;;;;8.66;100.00;99016.47;5039626;28;20518;-69
2023/01/13 02:59:49;;;;;;;5.20;1.80;;;;;;;8.67;100.00;99012.81;5040973;28;20481;-69
2023/01/13 03:02:18;;;;;;;7.10;2.47;;;;;;;8.71;100.00;99014.16;5039840;28;20501;-69
2023/01/13 03:04:49;;;;;;;10.97;2.00;;;;;;;8.75;100.00;99004.88;5040525;28;20474;-69
2023/01/13 03:07:42;;;;;;;7.80;2.10;;;;;;;8.79;100.00;99018.72;5028768;28;20495;-69
2023/01/13 03:10:12;;;;;;;6.07;2.70;;;;;;;8.81;100.00;99020.19;5023523;28;20474;-68
2023/01/13 03:12:44;;;;;;;8.63;2.00;;;;;;;8.63;100.00;99008.81;5024356;28;20536;-67
2023/01/13 03:15:17;;;;;;;7.23;2.20;;;;;;;8.66;100.00;99019.13;5004607;28;20482;-69
2023/01/13 03:17:47;;;;;;;7.23;2.40;;;;;;;8.56;100.00;99011.28;5024759;28;20442;-69
2023/01/13 03:20:19;;;;;;;11.40;3.20;;;;;;;8.46;100.00;99016.69;5042302;28;20514;-69
2023/01/13 03:22:52;;;;;;;4.67;2.50;;;;;;;8.40;100.00;99008.47;5042727;28;20449;-69
2023/01/13 03:25:23;;;;;;;10.77;2.37;;;;;;;8.30;100.00;99000.59;5039121;28;20467;-67
2023/01/13 03:27:53;;;;;;;8.30;2.70;;;;;;;8.38;100.00;99013.13;5042761;28;20485;-67
2023/01/13 03:30:22;;;;;;;10.03;2.50;;;;;;;8.28;100.00;99006.06;5032555;28;20438;-68
2023/01/13 03:32:51;;;;;;;11.67;2.63;;;;;;;8.31;100.00;98996.94;5030759;28;20486;-68
2023/01/13 03:35:22;;;;;;;14.37;2.60;;;;;;;8.36;100.00;98996.47;5024471;28;20455;-69
2023/01/13 03:37:53;;;;;;;10.17;2.73;;;;;;;8.40;100.00;98992.47;5024420;28;20489;-69
2023/01/13 03:40:24;;;;;;;11.50;2.77;;;;;;;8.34;100.00;98985.97;5039447;28;20545;-68
2023/01/13 03:45:36;;;;;;;10.20;2.80;;;;;;;8.36;100.00;99005.28;5020702;28;20478;-67
2023/01/13 03:48:05;;;;;;;14.70;2.90;;;;;;;8.45;100.00;99004.38;5024693;28;20554;-67
2023/01/13 03:50:35;;;;;;;11.23;2.53;;;;;;;8.45;100.00;98996.41;5032532;28;20553;-68
2023/01/13 03:53:05;;;;;;;13.33;2.17;;;;;;;8.59;100.00;98996.78;5043336;28;20537;-67
2023/01/13 03:55:34;;;;;;;12.17;3.00;;;;;;;8.59;100.00;98994.97;5043019;28;20470;-67
2023/01/13 03:58:05;;;;;;;7.07;2.30;;;;;;;8.63;100.00;99004.31;5043121;28;20466;-66
2023/01/13 04:00:35;;;;;;;18.17;4.27;;;;;;;8.50;100.00;98997.75;5032674;28;21678;-67
2023/01/13 04:03:05;;;;;;;5.30;2.37;;;;;;;8.63;100.00;98993.66;5028545;28;20497;-67
2023/01/13 04:05:34;;;;;;;5.77;2.30;;;;;;;8.65;100.00;99020.13;5022997;28;20499;-67
2023/01/13 04:08:05;;;;;;;8.93;2.80;;;;;;;8.52;100.00;99001.06;5023641;28;20459;-68
2023/01/13 04:10:34;;;;;;;14.27;2.50;;;;;;;8.38;100.00;98995.31;5022637;28;20988;-69
2023/01/13 04:13:04;;;;;;;7.47;2.27;;;;;;;8.33;100.00;98994.94;5027596;28;20482;-68
2023/01/13 04:15:33;;;;;;;11.53;3.30;;;;;;;8.29;100.00;99007.72;5043281;28;20516;-69
2023/01/13 04:18:11;;;;;;;9.10;2.57;;;;;;;8.36;100.00;99007.13;5028207;28;20451;-68
2023/01/13 04:20:40;;;;;;;16.80;3.10;;;;;;;8.38;100.00;99005.13;5032475;28;20458;-68
2023/01/13 04:23:08;;;;;;;8.60;2.40;;;;;;;8.32;100.00;98993.28;5034522;28;20513;-68
2023/01/13 04:25:34;;;;;;;12.13;2.87;;;;;;;8.37;100.00;99011.47;5024182;28;20494;-68
2023/01/13 04:28:02;;;;;;;10.33;3.20;;;;;;;8.51;100.00;99008.25;5032593;28;20463;-67
2023/01/13 04:30:29;;;;;;;14.67;4.20;;;;;;;8.54;100.00;99017.72;5034813;28;20465;-67
2023/01/13 04:32:55;;;;;;;7.27;2.90;;;;;;;8.48;100.00;99014.69;5042722;28;20462;-68
2023/01/13 04:35:22;;;;;;;9.80;2.73;;;;;;;8.53;100.00;99006.25;5039686;28;20450;-68
2023/01/13 04:37:50;;;;;;;9.20;3.37;;;;;;;8.50;100.00;99001.22;5032023;28;21096;-67
2023/01/13 04:40:17;;;;;;;13.97;3.57;;;;;;;8.42;100.00;99012.69;5031064;28;20933;-68
2023/01/13 04:42:43;;;;;;;15.63;4.23;;;;;;;8.23;100.00;98997.72;5042281;28;20538;-68
2023/01/13 04:45:11;;;;;;;12.10;3.70;;;;;;;8.20;100.00;98991.88;5029290;28;20462;-68
2023/01/13 04:47:44;;;;;;;9.83;3.40;;;;;;;8.19;100.00;98985.69;5023337;28;20495;-68
2023/01/13 04:50:11;;;;;;;10.07;3.20;;;;;;;8.13;100.00;98988.16;5021864;28;20455;-68
2023/01/13 04:52:38;;;;;;;14.40;3.80;;;;;;;8.10;100.00;98982.13;5021982;28;20486;-67
2023/01/13 04:55:08;;;;;;;13.67;3.00;;;;;;;8.09;100.00;98987.66;5023414;28;20459;-67
2023/01/13 04:57:36;;;;;;;13.20;2.60;;;;;;;7.96;100.00;98984.56;5036103;28;20470;-69
2023/01/13 05:00:04;;;;;;;17.27;4.00;;;;;;;7.99;100.00;98974.44;5043058;28;20450;-69
2023/01/13 05:02:31;;;;;;;13.93;2.63;;;;;;;8.04;100.00;98985.44;5033464;28;20505;-67
2023/01/13 05:04:58;;;;;;;14.70;3.40;;;;;;;7.99;100.00;98986.91;5031735;28;20784;-67
2023/01/13 05:07:24;;;;;;;12.10;2.60;;;;;;;7.92;100.00;98992.84;5041522;28;20562;-66
2023/01/13 05:09:51;;;;;;;11.23;2.53;;;;;;;7.92;100.00;98989.34;5030922;28;20446;-67
2023/01/13 05:17:59;;;;;;;15.70;3.20;;;;;;;7.73;100.00;98972.56;4941387;29;20470;-67
2023/01/13 05:20:26;;;;;;;23.83;4.40;;;;;;;7.80;100.00;98959.47;5012593;28;20458;-68
2023/01/13 05:25:35;;;;;;;17.00;3.17;;;;;;;7.66;100.00;98968.03;4988806;28;20988;-66
2023/01/13 05:28:03;;;;;;;15.53;3.17;;;;;;;7.77;100.00;98972.25;5021932;28;20549;-67
2023/01/13 05:30:32;;;;;;;17.03;4.00;;;;;;;7.67;100.00;98959.03;5026490;28;20471;-66
2023/01/13 05:32:58;;;;;;;12.70;3.33;;;;;;;7.75;100.00;98964.44;5034343;28;20462;-66
2023/01/13 05:35:25;;;;;;;11.80;2.97;;;;;;;7.67;100.00;98953.72;5026354;28;20952;-66
2023/01/13 05:37:52;;;;;;;7.63;3.00;;;;;;;7.75;100.00;98974.25;5020676;28;20478;-66
2023/01/13 05:43:23;;;;;;;11.17;3.27;;;;;;;7.77;100.00;98967.78;5031904;28;20466;-66
2023/01/13 05:45:56;;;;;;;8.70;2.00;;;;;;;7.65;100.00;98969.81;5023412;28;20823;-66
2023/01/13 05:48:24;;;;;;;6.60;2.10;;;;;;;7.61;100.00;98970.31;5031084;28;20975;-66
2023/01/13 05:50:53;;;;;;;7.53;2.47;;;;;;;7.64;100.00;98968.16;5022006;28;20470;-67
2023/01/13 05:53:21;;;;;;;13.17;3.10;;;;;;;7.70;100.00;98967.53;5023672;28;20474;-66
2023/01/13 05:55:48;;;;;;;7.60;1.93;;;;;;;7.64;100.00;98968.16;5019924;28;20482;-64
2023/01/13 05:58:19;;;;;;;8.13;2.73;;;;;;;7.75;100.00;98959.09;5029963;28;20914;-64
2023/01/13 06:00:48;;;;;;;7.90;2.03;;;;;;;7.78;100.00;98957.94;5025061;28;21008;-65
2023/01/13 06:03:15;;;;;;;10.13;2.00;;;;;;;7.80;100.00;98962.16;5026671;28;21026;-65
2023/01/13 06:05:42;;;;;;;9.30;2.30;;;;;;;7.75;100.00;98975.06;5027410;28;20585;-65
2023/01/13 06:08:09;;;;;;;10.87;2.13;;;;;;;7.69;100.00;98965.88;5022123;28;20487;-65
2023/01/13 06:10:36;;;;;;;5.67;1.63;;;;;;;7.80;100.00;98961.31;5021859;28;20500;-65
2023/01/13 06:13:03;;;;;;;9.10;1.93;;;;;;;7.75;100.00;98942.31;5029339;28;20485;-65
2023/01/13 06:15:31;;;;;;;12.13;3.93;;;;;;;7.72;100.00;98948.78;5022291;28;20482;-65
2023/01/13 06:17:58;;;;;;;12.13;2.20;;;;;;;7.71;100.00;98949.78;5028071;28;22236;-65
2023/01/13 06:20:25;;;;;;;6.63;1.87;;;;;;;7.69;100.00;98955.25;5032668;28;20443;-66
2023/01/13 06:22:52;;;;;;;7.80;2.07;;;;;;;7.60;100.00;98894.97;5024340;28;21098;-66
2023/01/13 06:25:26;;;;;;;12.53;1.70;;;;;;;7.63;100.00;98957.69;5020781;28;20459;-65
2023/01/13 06:27:57;;;;;;;9.03;2.80;;;;;;;7.63;100.00;98947.88;5001588;28;20490;-66
2023/01/13 06:30:29;;;;;;;9.23;2.60;;;;;;;7.66;100.00;98941.41;5015541;28;20455;-68
2023/01/13 06:32:59;;;;;;;8.23;2.30;;;;;;;7.70;100.00;98942.78;5029042;28;20454;-66
2023/01/13 06:35:28;;;;;;;7.10;2.00;;;;;;;7.66;100.00;98939.59;5040182;28;20478;-66
2023/01/13 06:37:56;;;;;;;5.80;1.70;;;;;;;7.64;100.00;98948.72;5038685;28;20837;-66
2023/01/13 06:40:24;;;;;;;6.37;1.77;;;;;;;7.56;100.00;98940.66;5030987;28;20470;-66
2023/01/13 06:45:36;;;;;;;6.60;1.67;;;;;;;7.43;100.00;98939.25;5023855;28;20991;-66
2023/01/13 06:48:04;;;;;;;13.73;2.97;;;;;;;7.45;100.00;98958.53;5034788;28;20481;-66
2023/01/13 06:50:31;;;;;;;8.53;3.50;;;;;;;7.46;100.00;98944.22;5041178;28;20517;-66
2023/01/13 06:52:58;;;;;;;9.17;3.13;;;;;;;7.53;100.00;98963.94;5023331;28;20498;-66
2023/01/13 06:55:24;;;;;;;7.27;2.70;;;;;;;7.58;100.00;98975.94;5037634;28;20460;-66
2023/01/13 06:57:53;;;;;;;7.70;1.83;;;;;;;7.66;100.00;98962.69;5039926;28;20476;-66
2023/01/13 07:00:21;;;;;;;8.00;2.20;;;;;;;7.72;100.00;98964.72;5023486;28;20459;-66
2023/01/13 07:02:47;;;;;;;9.50;1.93;;;;;;;7.82;100.00;98983.28;5042190;28;20454;-66
2023/01/13 07:05:16;;;;;;;7.10;1.90;;;;;;;7.84;100.00;98973.31;5033210;28;20474;-67
2023/01/13 07:07:43;;;;;;;7.60;2.07;;;;;;;7.79;100.00;98983.59;5023405;28;20475;-66
2023/01/13 07:10:12;;;;;;;8.20;2.03;;;;;;;7.85;100.00;98989.13;5043906;28;20465;-67
2023/01/13 07:15:21;;;;;;;9.70;2.77;;;;;;;7.83;100.00;98990.25;5021950;28;20462;-66
2023/01/13 07:17:47;;;;;;;12.00;2.10;;;;;;;7.82;100.00;98989.44;5024461;28;20485;-67
2023/01/13 07:20:16;;;;;;;20.40;3.70;;;;;;;7.88;100.00;98996.81;5023321;28;21057;-66
2023/01/13 07:22:45;;;;;;;6.40;2.10;;;;;;;7.79;100.00;98994.22;5035854;28;20504;-66
2023/01/13 07:25:12;;;;;;;12.90;2.40;;;;;;;7.52;100.00;98998.66;5042287;28;20492;-65
2023/01/13 07:27:38;;;;;;;13.13;2.57;;;;;;;7.67;100.00;99009.56;5044349;28;20894;-66
2023/01/13 07:30:06;;;;;;;6.53;1.90;;;;;;;7.69;100.00;99012.91;5025743;28;20451;-67
2023/01/13 07:32:33;;;;;;;7.87;2.30;;;;;;;7.79;100.00;99008.34;5024457;28;20852;-67
2023/01/13 07:35:04;;;;;;;14.13;3.03;;;;;;;7.76;100.00;99013.16;5027457;28;20474;-67
2023/01/13 07:37:32;;;;;;;3.23;1.83;;;;;;;7.86;100.00;99027.22;5042657;28;20527;-67
2023/01/13 07:39:59;;;;;;;8.27;2.77;;;;;;;7.79;100.00;99003.03;5043335;28;20447;-67
2023/01/13 07:45:12;;;;;;;9.27;2.53;;;;;;;7.81;100.00;99013.53;5036637;28;20462;-66
2023/01/13 07:47:39;;;;;;;15.57;3.37;;;;;;;7.89;100.00;99014.44;5024160;28;20502;-66
2023/01/13 07:50:13;;;;;;;11.70;2.50;;;;;;;7.66;100.00;99007.94;5023404;28;20427;-66
2023/01/13 07:52:41;;;;;;;10.10;2.73;;;;;;;7.54;100.00;99021.44;5022506;28;20474;-66
2023/01/13 07:55:08;;;;;;;13.20;2.30;;;;;;;7.54;100.00;99028.59;5021785;28;20968;-66
2023/01/13 07:57:35;;;;;;;6.30;1.90;;;;;;;7.65;100.00;99017.72;5023968;28;20639;-66
2023/01/13 08:00:02;;;;;;;5.60;2.33;;;;;;;7.80;100.00;99025.19;5039945;28;20492;-65
2023/01/13 08:02:29;;;;;;;13.27;2.60;;;;;;;7.96;100.00;99043.09;5035777;28;20508;-66
2023/01/13 08:04:56;;;;;;;12.37;2.70;;;;;;;7.85;100.00;99025.56;5023755;28;20434;-65
2023/01/13 08:07:23;;;;;;;7.90;2.63;;;;;;;7.91;100.00;99033.72;5037585;28;20474;-66
2023/01/13 08:09:51;;;;;;;8.30;2.70;;;;;;;7.85;100.00;99036.19;5042278;28;20974;-66
2023/01/13 08:15:02;;;;;;;9.00;2.90;;;;;;;8.38;97.31;99042.41;5022108;28;20439;-66
2023/01/13 08:17:28;;;;;;;11.57;2.13;;;;;;;8.49;95.22;99026.22;5022957;28;20479;-65
2023/01/13 08:19:55;;;;;;;10.47;3.67;;;;;;;8.20;95.68;99035.31;5029720;28;20481;-66
2023/01/13 08:22:22;;;;;;;13.50;2.43;;;;;;;7.99;95.95;99040.97;5041965;28;20487;-66
2023/01/13 08:24:50;;;;;;;8.17;2.57;;;;;;;8.20;95.49;99051.28;5041194;28;20573;-66
2023/01/13 08:27:19;;;;;;;9.10;2.47;;;;;;;8.25;95.23;99030.34;5033480;28;20506;-67
2023/01/13 08:29:45;;;;;;;11.33;2.80;;;;;;;8.15;94.21;99026.13;5022370;28;20462;-65
2023/01/13 08:32:12;;;;;;;8.13;2.37;;;;;;;8.40;93.51;99048.41;5042194;28;20600;-66
2023/01/13 08:34:39;;;;;;;7.43;2.67;;;;;;;8.51;93.09;99040.22;5041868;28;20451;-66
2023/01/13 08:37:05;;;;;;;8.93;2.50;;;;;;;8.33;92.88;99034.88;5040581;28;20995;-67
2023/01/13 08:39:32;;;;;;;4.73;1.67;;;;;;;8.24;92.66;99039.31;5042144;28;21060;-66
2023/01/13 08:42:00;;;;;;;11.80;2.50;;;;;;;8.40;92.35;99037.75;5025764;28;20533;-66
2023/01/13 08:44:28;;;;;;;9.00;2.03;;;;;;;8.06;92.69;99031.38;5022433;28;20795;-66
2023/01/13 08:46:55;;;;;;;11.03;2.90;;;;;;;8.17;92.70;99043.59;5022233;28;20491;-66
2023/01/13 08:49:23;;;;;;;12.13;2.03;;;;;;;8.23;91.86;99037.66;5042603;28;20434;-66
2023/01/13 08:51:50;;;;;;;7.40;2.20;;;;;;;8.14;92.08;99041.22;5030091;28;20507;-66
2023/01/13 08:54:16;;;;;;;11.33;2.20;;;;;;;8.21;91.62;99041.44;5027551;28;20978;-65
2023/01/13 08:56:44;;;;;;;11.10;3.43;;;;;;;8.32;91.38;99056.38;5041694;28;20470;-67
2023/01/13 08:59:13;;;;;;;12.00;2.60;;;;;;;8.18;91.52;99020.50;5025103;28;20450;-66
2023/01/13 09:01:40;;;;;;;7.43;2.60;;;;;;;8.09;91.84;99020.41;5022049;28;20506;-66
2023/01/13 09:04:08;;;;;;;12.23;2.47;;;;;;;8.30;92.52;99041.38;5022739;28;20419;-66
2023/01/13 09:06:35;;;;;;;9.33;2.47;;;;;;;8.23;91.94;99047.47;5020962;28;20483;-66
2023/01/13 09:09:01;;;;;;;6.57;1.83;;;;;;;8.21;92.51;99036.97;5028723;28;20517;-67
2023/01/13 09:14:25;;;;;;;9.20;2.63;;;;;;;8.72;90.37;99047.81;5040788;28;20469;-67
2023/01/13 09:16:55;;;;;;;11.00;2.00;;;;;;;8.54;90.81;99039.91;5022880;28;20581;-67
2023/01/13 09:19:21;;;;;;;9.50;1.63;;;;;;;8.47;91.26;99041.50;5041696;28;20935;-66
2023/01/13 09:21:48;;;;;;;12.97;2.40;;;;;;;8.45;91.26;99059.47;5040148;28;20929;-66
2023/01/13 09:24:15;;;;;;;7.30;2.37;;;;;;;8.38;91.72;99056.56;5041112;28;20480;-66
2023/01/13 09:26:45;;;;;;;9.03;2.47;;;;;;;8.27;92.36;99054.97;5040542;28;20501;-64
2023/01/13 09:29:13;;;;;;;12.10;3.57;;;;;;;8.24;92.48;99070.44;5031130;28;20529;-66
2023/01/13 09:31:41;;;;;;;11.57;2.40;;;;;;;8.56;92.50;99072.53;5041194;28;20910;-66
2023/01/13 09:36:56;;;;;;;9.23;3.90;;;;;;;8.49;91.32;99060.84;5030200;28;20490;-65
2023/01/13 09:39:23;;;;;;;8.23;1.97;;;;;;;8.43;91.60;99059.63;5021587;28;20451;-66
2023/01/13 09:44:44;;;;;;;10.23;2.57;;;;;;;8.40;92.18;99083.03;5021499;28;20442;-66
2023/01/13 09:47:19;;;;;;;12.63;2.40;;;;;;;8.32;91.32;99083.81;5023977;28;21053;-66
2023/01/13 09:49:46;;;;;;;9.97;3.10;;;;;;;8.33;91.68;99092.63;5041343;28;20418;-66
2023/01/13 09:52:18;;;;;;;7.70;2.27;;;;;;;8.53;90.82;99086.16;5024332;28;20510;-66
2023/01/13 09:54:46;;;;;;;11.07;2.93;;;;;;;8.50;90.21;99090.97;5028588;28;20493;-66
2023/01/13 09:57:14;;;;;;;14.23;2.70;;;;;;;8.45;88.53;99094.94;5040792;28;20474;-66
2023/01/13 09:59:42;;;;;;;11.33;2.43;;;;;;;8.48;89.59;99093.78;5040752;28;20465;-66
2023/01/13 10:02:30;;;;;;;6.90;2.40;;;;;;;8.40;88.86;99075.91;5035352;28;20487;-66
2023/01/13 10:05:10;;;;;;;8.37;2.30;;;;;;;8.37;88.22;99078.88;5021790;28;20509;-67
2023/01/13 10:07:39;;;;;;;8.90;2.80;;;;;;;8.56;88.74;99099.19;5038412;28;20493;-67
2023/01/13 10:10:13;;;;;;;8.07;2.93;;;;;;;8.28;89.54;99085.09;5031498;28;20622;-66
2023/01/13 10:15:27;;;;;;;8.20;2.33;;;;;;;8.25;90.72;99096.91;5040399;28;20619;-66
2023/01/13 10:17:59;;;;;;;9.47;2.60;;;;;;;8.29;90.59;99090.28;5026235;28;20478;-66
2023/01/13 10:20:30;;;;;;;13.10;2.97;;;;;;;8.31;88.90;99076.81;5020634;28;20466;-66
2023/01/13 10:23:03;;;;;;;10.57;3.03;;;;;;;8.35;88.93;99093.31;5022436;28;20467;-67
2023/01/13 10:25:50;;;;;;;6.60;2.90;;;;;;;8.46;88.50;99090.44;5040188;28;20510;-66
2023/01/13 10:28:18;;;;;;;13.03;2.87;;;;;;;8.53;87.17;99080.84;5021445;28;20529;-66
2023/01/13 10:30:46;;;;;;;9.70;2.70;;;;;;;8.65;86.31;99084.09;5026137;28;20504;-66
2023/01/13 10:33:16;;;;;;;9.77;2.50;;;;;;;8.64;86.60;99077.91;5040820;28;20454;-66
2023/01/13 10:35:57;;;;;;;11.43;3.10;;;;;;;8.89;85.30;99078.06;5023297;28;20836;-67
2023/01/13 10:38:27;;;;;;;7.73;2.30;;;;;;;8.94;84.83;99080.22;5020006;28;20510;-66
2023/01/13 10:40:55;;;;;;;14.40;3.03;;;;;;;8.99;84.43;99068.13;5020501;28;20483;-66
2023/01/13 10:43:22;;;;;;;13.63;3.83;;;;;;;8.90;85.01;99074.38;5020370;28;20450;-66
2023/01/13 10:45:56;;;;;;;10.90;3.03;;;;;;;8.89;84.94;99072.72;5020460;28;20493;-66
2023/01/13 10:48:33;;;;;;;14.70;2.57;;;;;;;8.78;84.69;99079.16;5021039;28;20481;-66
2023/01/13 10:51:10;;;;;;;14.03;3.17;;;;;;;8.98;84.09;99077.09;5019158;28;20478;-67
2023/01/13 10:53:46;;;;;;;10.20;3.20;;;;;;;8.65;84.70;99076.91;5038943;28;20548;-65
2023/01/13 10:56:17;;;;;;;14.10;2.53;;;;;;;8.65;85.02;99071.59;5026096;28;20466;-67
2023/01/13 10:58:43;;;;;;;11.60;3.13;;;;;;;8.73;84.41;99076.16;5020517;28;20998;-66
2023/01/13 11:01:19;;;;;;;9.20;2.90;;;;;;;8.76;84.56;99065.16;5020425;28;20482;-66
2023/01/13 11:03:48;;;;;;;15.43;3.43;;;;;;;9.12;83.54;99098.84;5020663;28;20515;-69
2023/01/13 11:06:25;;;;;;;11.30;2.57;;;;;;;8.71;85.08;99090.59;5020753;28;20511;-68
2023/01/13 11:08:54;;;;;;;12.60;3.40;;;;;;;8.83;84.74;99094.66;5020156;28;20490;-68
2023/01/13 11:11:37;;;;;;;10.03;2.63;;;;;;;9.09;83.67;99097.31;5033644;28;20893;-69
2023/01/13 11:16:53;;;;;;;14.80;2.53;;;;;;;10.01;80.11;99081.38;5036900;28;20500;-68
2023/01/13 11:19:22;;;;;;;15.33;3.33;;;;;;;10.38;77.49;99096.13;5020237;28;20441;-68
2023/01/13 11:21:53;;;;;;;6.93;2.60;;;;;;;9.91;78.56;99100.25;5019515;28;20518;-68
2023/01/13 11:24:23;;;;;;;12.20;3.03;;;;;;;9.73;79.07;99102.22;5022239;28;20481;-68
2023/01/13 11:26:55;;;;;;;9.00;2.80;;;;;;;9.69;80.87;99099.03;5039031;28;20489;-68
2023/01/13 11:29:27;;;;;;;9.53;2.70;;;;;;;10.04;78.72;99098.94;5024016;28;20552;-69
2023/01/13 11:31:59;;;;;;;13.77;2.77;;;;;;;9.90;78.45;99087.06;5024273;28;20495;-68
2023/01/13 11:34:32;;;;;;;14.63;3.43;;;;;;;9.73;80.27;99100.38;5023911;28;20451;-68
2023/01/13 11:37:01;;;;;;;14.80;3.80;;;;;;;9.47;80.77;99100.47;5023300;28;20487;-68
2023/01/13 11:39:38;;;;;;;13.13;4.10;;;;;;;9.48;82.40;99093.28;5036415;28;20455;-68
2023/01/13 11:42:22;;;;;;;10.70;3.53;;;;;;;9.66;81.95;99098.53;5042231;28;20508;-68
2023/01/13 11:44:56;;;;;;;6.50;2.30;;;;;;;9.58;81.85;99096.66;5043666;28;20426;-68
2023/01/13 11:47:25;;;;;;;13.70;5.40;;;;;;;9.88;81.78;99097.06;5027732;28;20510;-68
2023/01/13 11:49:53;;;;;;;12.50;3.50;;;;;;;9.24;82.72;99092.22;5036532;28;20470;-68
2023/01/13 11:52:24;;;;;;;18.67;3.30;;;;;;;9.28;83.42;99090.88;5023459;28;20482;-68
2023/01/13 11:54:58;;;;;;;8.80;3.30;;;;;;;9.39;83.11;99111.94;5022840;28;20466;-68
2023/01/13 11:57:42;;;;;;;12.23;3.67;;;;;;;9.47;83.08;99096.97;5029821;28;20584;-69
2023/01/13 12:00:22;;;;;;;10.53;3.60;;;;;;;9.13;84.28;99089.81;5042788;28;20438;-67
2023/01/13 12:02:57;;;;;;;5.00;2.50;;;;;;;9.38;83.34;99083.59;5042060;28;21048;-68
2023/01/13 12:05:31;;;;;;;10.67;2.97;;;;;;;9.30;84.14;99096.06;5031936;28;20494;-67
2023/01/13 12:08:09;;;;;;;19.80;3.50;;;;;;;9.12;85.25;99097.00;5023282;28;20509;-69
2023/01/13 12:10:46;;;;;;;12.17;3.10;;;;;;;9.19;85.86;99103.34;5023497;28;20490;-69
2023/01/13 12:13:22;;;;;;;12.90;3.00;;;;;;;9.41;86.39;99117.13;5042018;28;21069;-68
2023/01/13 12:16:14;;;;;;;11.37;2.73;;;;;;;9.06;88.03;99118.94;5041645;28;20486;-68
2023/01/13 12:18:58;;;;;;;16.90;3.00;;;;;;;9.02;89.02;99118.44;5029172;28;20471;-68
2023/01/13 12:21:29;;;;;;;9.73;3.10;;;;;;;8.58;93.48;99126.50;5026571;28;20479;-68
2023/01/13 12:24:04;;;;;;;13.13;2.67;;;;;;;8.92;96.51;99123.03;5042273;28;20462;-68
2023/01/13 12:26:35;;;;;;;10.80;2.97;;;;;;;8.71;96.19;99127.91;5025575;28;20561;-68
2023/01/13 12:29:05;;;;;;;11.37;3.57;;;;;;;8.50;96.05;99133.59;5032445;28;20509;-67
2023/01/13 12:31:34;;;;;;;11.10;3.30;;;;;;;8.74;95.44;99120.44;5042560;28;20897;-68
2023/01/13 12:34:13;;;;;;;19.60;3.53;;;;;;;8.90;95.29;99126.88;5024732;28;20455;-68